#dbistima — V2PX5 — position and weather

sailwx.info

Track history (hours):
 
Tides and Currents Weather Stations Pressure Air Temp Water Temp Dewpoint Dewpoint Depression Visibility Wind Speed Wind Dir Waves Ship Positions

#dbistima

Last reported at 2017-Feb-20 16:13 UTC. Time now 2017-Feb-21 01:17 UTC.
Position N 50°52' W 005°52'.

MMSI: 304010972.

Date/timePositionNaut miles runAvg speedWind from/ knotsBaromVisibWave heightAir tempDewpointWater temp
2017-Feb-20 16:13N 50°52' W 005°52'6 9.1
2017-Feb-20 15:32N 50°46' W 005°52'10 9.2
2017-Feb-20 14:24N 50°36' W 005°52'8 9.4
2017-Feb-20 13:33N 50°28' W 005°52'9 9.6
2017-Feb-20 12:33N 50°18' W 005°52'11 9.7
2017-Feb-20 11:27N 50°07' W 005°52'23 8.0
2017-Feb-20 08:31N 49°55' W 005°21'19 9.8
2017-Feb-20 06:32N 49°55' W 004°51'1410.1
2017-Feb-20 05:07N 49°56' W 004°29'9 9.9
2017-Feb-20 04:13N 49°56' W 004°15'7 9.8
2017-Feb-20 03:33N 49°57' W 004°05'11 9.4
2017-Feb-20 02:23N 49°57' W 003°48'8 9.2
2017-Feb-20 01:33N 49°58' W 003°36'9 9.1
2017-Feb-20 00:33N 49°59' W 003°21'9 9.3
2017-Feb-19 23:33N 49°59' W 003°07'9 9.4
2017-Feb-19 22:33N 50°01' W 002°53'4610.7
2017-Feb-19 18:17N 50°13' W 001°44'810.8
2017-Feb-19 17:33N 50°15' W 001°32'1110.2
2017-Feb-19 16:31N 50°18' W 001°16'10 9.3
2017-Feb-19 15:29N 50°20' W 001°02'25 8.5
2017-Feb-19 12:30N 50°27' W 000°23'9 9.2
2017-Feb-19 11:34N 50°30' W 000°10'1110.1
2017-Feb-19 10:31N 50°33' E 000°06'1010.6
2017-Feb-19 09:33N 50°35' E 000°21'1110.6
2017-Feb-19 08:33N 50°38' E 000°37'1010.4
2017-Feb-19 07:33N 50°45' E 000°50'11 9.9
2017-Feb-19 06:29N 50°51' E 001°03'9 9.3
2017-Feb-19 05:33N 50°57' E 001°14'9 8.6
2017-Feb-19 04:33N 51°02' E 001°24'9 8.8
2017-Feb-19 03:33N 51°08' E 001°35'9 9.4
2017-Feb-19 02:33N 51°15' E 001°46'1110.7
2017-Feb-19 01:33N 51°24' E 001°53'1111.1
2017-Feb-19 00:33N 51°33' E 002°04'1111.1
2017-Feb-18 23:33N 51°41' E 002°16'1110.4
2017-Feb-18 22:29N 51°49' E 002°28'152 9.3
2017-Feb-18 06:08N 53°39' E 005°22'711.0
2017-Feb-18 05:32N 53°41' E 005°32'1110.9
2017-Feb-18 04:30N 53°45' E 005°51'86 9.5
2017-Feb-17 19:28N 54°00' E 008°14'1111.9
2017-Feb-17 18:33N 53°58' E 008°32'1010.5
2017-Feb-17 17:33N 53°51' E 008°45'9 8.6
2017-Feb-17 16:33N 53°51' E 008°60'6 5.8
2017-Feb-17 15:33N 53°54' E 009°09'4 4.3
2017-Feb-17 14:33N 53°57' E 009°14'8 8.2
2017-Feb-17 13:33N 54°04' E 009°19'51 6.9
2017-Feb-17 06:05N 54°33' E 010°32'510.1
2017-Feb-17 05:33N 54°35' E 010°41'1010.0
2017-Feb-17 04:33N 54°36' E 010°58'9 9.2
2017-Feb-17 03:33N 54°35' E 011°14'10 9.6
2017-Feb-17 02:33N 54°31' E 011°28'10 9.7
2017-Feb-17 01:34N 54°27' E 011°44'11 9.1
2017-Feb-17 00:18N 54°27' E 012°03'6 8.4
2017-Feb-16 23:33N 54°31' E 012°12'10 9.5
2017-Feb-16 22:33N 54°39' E 012°20'10 9.8
2017-Feb-16 21:34N 54°44' E 012°34'74 9.3
2017-Feb-16 13:33N 54°39' E 014°43'11 9.7
2017-Feb-16 12:28N 54°41' E 015°01'9 9.9
2017-Feb-16 11:32N 54°42' E 015°16'12 9.7
2017-Feb-16 10:15N 54°44' E 015°38'85 9.6
2017-Feb-16 01:28N 54°57' E 018°03'9 9.9
2017-Feb-16 00:31N 54°57' E 018°19'9 9.7
2017-Feb-15 23:33N 54°57' E 018°36'1110.6
2017-Feb-15 22:33N 54°51' E 018°50'9 9.2
2017-Feb-15 21:33N 54°44' E 019°00'1010.5
2017-Feb-15 20:33N 54°34' E 018°52'1010.3
2017-Feb-15 19:34N 54°27' E 018°40'5 4.8
2017-Feb-15 18:33N 54°22' E 018°40'0 0.1
2017-Feb-15 17:33N 54°22' E 018°40'0 0.0
2017-Feb-15 16:33N 54°22' E 018°40'0 0.0
2017-Feb-15 15:34N 54°22' E 018°40'0 0.0
2017-Feb-15 14:33N 54°22' E 018°40'0 0.0
2017-Feb-15 13:33N 54°22' E 018°40'0 0.0
2017-Feb-15 12:33N 54°22' E 018°40'0 0.0
2017-Feb-15 11:34N 54°22' E 018°40'0 0.0
2017-Feb-15 10:34N 54°22' E 018°40'0 0.0
2017-Feb-15 09:33N 54°22' E 018°40'0 0.0
2017-Feb-15 08:34N 54°22' E 018°40'0 0.0
2017-Feb-15 07:34N 54°22' E 018°40'0 0.0
2017-Feb-15 06:34N 54°22' E 018°40'0 0.0
2017-Feb-15 05:34N 54°22' E 018°40'0 0.0
2017-Feb-15 04:33N 54°22' E 018°40'0 0.0
2017-Feb-15 03:34N 54°22' E 018°40'0 0.0
2017-Feb-15 02:34N 54°22' E 018°40'0 0.0
2017-Feb-15 01:34N 54°22' E 018°40'0 0.0
2017-Feb-15 00:33N 54°22' E 018°40'0 0.0
2017-Feb-14 23:33N 54°22' E 018°40'0 0.0
2017-Feb-14 22:33N 54°22' E 018°40'0 0.0
2017-Feb-14 21:33N 54°22' E 018°40'0 0.0
2017-Feb-14 20:34N 54°22' E 018°40'0 0.0
2017-Feb-14 19:33N 54°22' E 018°40'0 0.0
2017-Feb-14 18:33N 54°22' E 018°40'0 0.0
2017-Feb-14 17:33N 54°22' E 018°40'0 0.0
2017-Feb-14 16:33N 54°22' E 018°40'0 0.1
2017-Feb-14 15:33N 54°22' E 018°40'4 4.2
2017-Feb-14 14:34N 54°26' E 018°39'6 5.9
2017-Feb-14 13:33N 54°31' E 018°45'10 9.8
2017-Feb-14 12:33N 54°39' E 018°55'9 8.9
2017-Feb-14 11:33N 54°48' E 018°56'1110.6
2017-Feb-14 10:34N 54°54' E 018°42'1010.1
2017-Feb-14 09:34N 54°57' E 018°25'1111.1
2017-Feb-14 08:33N 54°56' E 018°05'1111.0
2017-Feb-14 07:33N 54°55' E 017°46'1110.9
2017-Feb-14 06:33N 54°54' E 017°27'7911.1
2017-Feb-13 23:26N 54°40' E 015°13'2310.9
2017-Feb-13 21:21N 54°36' E 014°34'1110.5
2017-Feb-13 20:19N 54°37' E 014°15'810.9
2017-Feb-13 19:33N 54°39' E 014°01'1210.8
2017-Feb-13 18:29N 54°43' E 013°42'1010.2
2017-Feb-13 17:29N 54°50' E 013°29'1011.0
2017-Feb-13 16:33N 54°60' E 013°22'1010.0
2017-Feb-13 15:33N 55°09' E 013°15'10 9.1
2017-Feb-13 14:30N 55°14' E 013°01'1010.3
2017-Feb-13 13:33N 55°16' E 012°44'9 8.5
2017-Feb-13 12:33N 55°25' E 012°39'1110.9
2017-Feb-13 11:34N 55°35' E 012°42'1110.9
2017-Feb-13 10:33N 55°46' E 012°41'1110.6
2017-Feb-13 09:34N 55°57' E 012°38'9 8.6
2017-Feb-13 08:34N 56°05' E 012°35'9 8.7
2017-Feb-13 07:34N 56°10' E 012°22'68 9.6
2017-Feb-13 00:32N 57°12' E 011°34'9 9.3
2017-Feb-12 23:34N 57°21' E 011°28'9 9.2
2017-Feb-12 22:33N 57°29' E 011°21'9 9.2
2017-Feb-12 21:33N 57°37' E 011°13'10 9.7
2017-Feb-12 20:34N 57°46' E 011°03'1010.1
2017-Feb-12 19:33N 57°55' E 010°54'5410.9
2017-Feb-12 14:33N 58°42' E 010°03'1010.1
2017-Feb-12 13:33N 58°51' E 009°54'1010.2
2017-Feb-12 12:33N 59°00' E 009°47'4 4.3
2017-Feb-12 11:33N 59°04' E 009°42'0 0.0
2017-Feb-12 10:33N 59°04' E 009°42'0 0.0
2017-Feb-12 09:33N 59°04' E 009°42'0 0.0
2017-Feb-12 08:33N 59°04' E 009°42'0 0.0
2017-Feb-12 07:33N 59°04' E 009°42'0 0.0
2017-Feb-12 06:33N 59°04' E 009°42'0 0.0
2017-Feb-12 05:33N 59°04' E 009°42'0 0.0
2017-Feb-12 04:33N 59°04' E 009°42'0 0.0
2017-Feb-12 03:32N 59°04' E 009°42'0 0.0
2017-Feb-12 02:33N 59°04' E 009°42'0 0.0
2017-Feb-12 01:33N 59°04' E 009°42'0 0.0
2017-Feb-12 00:33N 59°04' E 009°42'0 0.0
2017-Feb-11 23:33N 59°04' E 009°42'0 0.0
2017-Feb-11 22:33N 59°04' E 009°42'0 0.0
2017-Feb-11 21:33N 59°04' E 009°42'0 0.0
2017-Feb-11 20:33N 59°04' E 009°42'0 0.0
2017-Feb-11 19:33N 59°04' E 009°42'0 0.0
2017-Feb-11 18:33N 59°04' E 009°42'0 0.0
2017-Feb-11 17:33N 59°04' E 009°42'0 0.0
2017-Feb-11 16:34N 59°04' E 009°42'0 0.0
2017-Feb-11 15:33N 59°04' E 009°42'0 0.0
2017-Feb-11 14:33N 59°04' E 009°42'0 0.0
2017-Feb-11 13:33N 59°04' E 009°42'0 0.0
2017-Feb-11 12:33N 59°04' E 009°42'0 0.0
2017-Feb-11 11:33N 59°04' E 009°42'0 0.0
2017-Feb-11 10:33N 59°04' E 009°42'0 0.0
2017-Feb-11 09:33N 59°04' E 009°42'0 0.0
2017-Feb-11 08:33N 59°04' E 009°42'0 0.0
2017-Feb-11 07:33N 59°04' E 009°42'0 0.0
2017-Feb-11 06:33N 59°04' E 009°42'0 0.0
2017-Feb-11 05:32N 59°04' E 009°42'0 0.0
2017-Feb-11 04:33N 59°04' E 009°42'0 0.0
2017-Feb-11 03:34N 59°04' E 009°42'0 0.0
2017-Feb-11 02:33N 59°04' E 009°42'0 0.0
2017-Feb-11 01:33N 59°04' E 009°42'0 0.0
2017-Feb-11 00:32N 59°04' E 009°42'0 0.0
2017-Feb-10 23:33N 59°04' E 009°42'0 0.0
2017-Feb-10 22:33N 59°04' E 009°42'0 0.0
2017-Feb-10 21:33N 59°04' E 009°42'0 0.1
2017-Feb-10 20:33N 59°04' E 009°42'8 7.7
2017-Feb-10 19:33N 58°57' E 009°48'9 9.5
2017-Feb-10 18:33N 58°48' E 009°56'  
Track history (hours):
 
Tides and Currents Weather Stations Pressure Air Temp Water Temp Dewpoint Dewpoint Depression Visibility Wind Speed Wind Dir Waves Ship Positions

#dbistima

Last reported at 2017-Feb-20 16:13 UTC. Time now 2017-Feb-21 01:17 UTC.
Position N 50°52' W 005°52'.

MMSI: 304010972.

Date/timePositionNaut miles runAvg speedWind from/ knotsBaromVisibWave heightAir tempDewpointWater temp
2017-Feb-20 16:13N 50°52' W 005°52'6 9.1
2017-Feb-20 15:32N 50°46' W 005°52'10 9.2
2017-Feb-20 14:24N 50°36' W 005°52'8 9.4
2017-Feb-20 13:33N 50°28' W 005°52'9 9.6
2017-Feb-20 12:33N 50°18' W 005°52'11 9.7
2017-Feb-20 11:27N 50°07' W 005°52'23 8.0
2017-Feb-20 08:31N 49°55' W 005°21'19 9.8
2017-Feb-20 06:32N 49°55' W 004°51'1410.1
2017-Feb-20 05:07N 49°56' W 004°29'9 9.9
2017-Feb-20 04:13N 49°56' W 004°15'7 9.8
2017-Feb-20 03:33N 49°57' W 004°05'11 9.4
2017-Feb-20 02:23N 49°57' W 003°48'8 9.2
2017-Feb-20 01:33N 49°58' W 003°36'9 9.1
2017-Feb-20 00:33N 49°59' W 003°21'9 9.3
2017-Feb-19 23:33N 49°59' W 003°07'9 9.4
2017-Feb-19 22:33N 50°01' W 002°53'4610.7
2017-Feb-19 18:17N 50°13' W 001°44'810.8
2017-Feb-19 17:33N 50°15' W 001°32'1110.2
2017-Feb-19 16:31N 50°18' W 001°16'10 9.3
2017-Feb-19 15:29N 50°20' W 001°02'25 8.5
2017-Feb-19 12:30N 50°27' W 000°23'9 9.2
2017-Feb-19 11:34N 50°30' W 000°10'1110.1
2017-Feb-19 10:31N 50°33' E 000°06'1010.6
2017-Feb-19 09:33N 50°35' E 000°21'1110.6
2017-Feb-19 08:33N 50°38' E 000°37'1010.4
2017-Feb-19 07:33N 50°45' E 000°50'11 9.9
2017-Feb-19 06:29N 50°51' E 001°03'9 9.3
2017-Feb-19 05:33N 50°57' E 001°14'9 8.6
2017-Feb-19 04:33N 51°02' E 001°24'9 8.8
2017-Feb-19 03:33N 51°08' E 001°35'9 9.4
2017-Feb-19 02:33N 51°15' E 001°46'1110.7
2017-Feb-19 01:33N 51°24' E 001°53'1111.1
2017-Feb-19 00:33N 51°33' E 002°04'1111.1
2017-Feb-18 23:33N 51°41' E 002°16'1110.4
2017-Feb-18 22:29N 51°49' E 002°28'152 9.3
2017-Feb-18 06:08N 53°39' E 005°22'711.0
2017-Feb-18 05:32N 53°41' E 005°32'1110.9
2017-Feb-18 04:30N 53°45' E 005°51'86 9.5
2017-Feb-17 19:28N 54°00' E 008°14'1111.9
2017-Feb-17 18:33N 53°58' E 008°32'1010.5
2017-Feb-17 17:33N 53°51' E 008°45'9 8.6
2017-Feb-17 16:33N 53°51' E 008°60'6 5.8
2017-Feb-17 15:33N 53°54' E 009°09'4 4.3
2017-Feb-17 14:33N 53°57' E 009°14'8 8.2
2017-Feb-17 13:33N 54°04' E 009°19'51 6.9
2017-Feb-17 06:05N 54°33' E 010°32'510.1
2017-Feb-17 05:33N 54°35' E 010°41'1010.0
2017-Feb-17 04:33N 54°36' E 010°58'9 9.2
2017-Feb-17 03:33N 54°35' E 011°14'10 9.6
2017-Feb-17 02:33N 54°31' E 011°28'10 9.7
2017-Feb-17 01:34N 54°27' E 011°44'11 9.1
2017-Feb-17 00:18N 54°27' E 012°03'6 8.4
2017-Feb-16 23:33N 54°31' E 012°12'10 9.5
2017-Feb-16 22:33N 54°39' E 012°20'10 9.8
2017-Feb-16 21:34N 54°44' E 012°34'74 9.3
2017-Feb-16 13:33N 54°39' E 014°43'11 9.7
2017-Feb-16 12:28N 54°41' E 015°01'9 9.9
2017-Feb-16 11:32N 54°42' E 015°16'12 9.7
2017-Feb-16 10:15N 54°44' E 015°38'85 9.6
2017-Feb-16 01:28N 54°57' E 018°03'9 9.9
2017-Feb-16 00:31N 54°57' E 018°19'9 9.7
2017-Feb-15 23:33N 54°57' E 018°36'1110.6
2017-Feb-15 22:33N 54°51' E 018°50'9 9.2
2017-Feb-15 21:33N 54°44' E 019°00'1010.5
2017-Feb-15 20:33N 54°34' E 018°52'1010.3
2017-Feb-15 19:34N 54°27' E 018°40'5 4.8
2017-Feb-15 18:33N 54°22' E 018°40'0 0.1
2017-Feb-15 17:33N 54°22' E 018°40'0 0.0
2017-Feb-15 16:33N 54°22' E 018°40'0 0.0
2017-Feb-15 15:34N 54°22' E 018°40'0 0.0
2017-Feb-15 14:33N 54°22' E 018°40'0 0.0
2017-Feb-15 13:33N 54°22' E 018°40'0 0.0
2017-Feb-15 12:33N 54°22' E 018°40'0 0.0
2017-Feb-15 11:34N 54°22' E 018°40'0 0.0
2017-Feb-15 10:34N 54°22' E 018°40'0 0.0
2017-Feb-15 09:33N 54°22' E 018°40'0 0.0
2017-Feb-15 08:34N 54°22' E 018°40'0 0.0
2017-Feb-15 07:34N 54°22' E 018°40'0 0.0
2017-Feb-15 06:34N 54°22' E 018°40'0 0.0
2017-Feb-15 05:34N 54°22' E 018°40'0 0.0
2017-Feb-15 04:33N 54°22' E 018°40'0 0.0
2017-Feb-15 03:34N 54°22' E 018°40'0 0.0
2017-Feb-15 02:34N 54°22' E 018°40'0 0.0
2017-Feb-15 01:34N 54°22' E 018°40'0 0.0
2017-Feb-15 00:33N 54°22' E 018°40'0 0.0
2017-Feb-14 23:33N 54°22' E 018°40'0 0.0
2017-Feb-14 22:33N 54°22' E 018°40'0 0.0
2017-Feb-14 21:33N 54°22' E 018°40'0 0.0
2017-Feb-14 20:34N 54°22' E 018°40'0 0.0
2017-Feb-14 19:33N 54°22' E 018°40'0 0.0
2017-Feb-14 18:33N 54°22' E 018°40'0 0.0
2017-Feb-14 17:33N 54°22' E 018°40'0 0.0
2017-Feb-14 16:33N 54°22' E 018°40'0 0.1
2017-Feb-14 15:33N 54°22' E 018°40'4 4.2
2017-Feb-14 14:34N 54°26' E 018°39'6 5.9
2017-Feb-14 13:33N 54°31' E 018°45'10 9.8
2017-Feb-14 12:33N 54°39' E 018°55'9 8.9
2017-Feb-14 11:33N 54°48' E 018°56'1110.6
2017-Feb-14 10:34N 54°54' E 018°42'1010.1
2017-Feb-14 09:34N 54°57' E 018°25'1111.1
2017-Feb-14 08:33N 54°56' E 018°05'1111.0
2017-Feb-14 07:33N 54°55' E 017°46'1110.9
2017-Feb-14 06:33N 54°54' E 017°27'7911.1
2017-Feb-13 23:26N 54°40' E 015°13'2310.9
2017-Feb-13 21:21N 54°36' E 014°34'1110.5
2017-Feb-13 20:19N 54°37' E 014°15'810.9
2017-Feb-13 19:33N 54°39' E 014°01'1210.8
2017-Feb-13 18:29N 54°43' E 013°42'1010.2
2017-Feb-13 17:29N 54°50' E 013°29'1011.0
2017-Feb-13 16:33N 54°60' E 013°22'1010.0
2017-Feb-13 15:33N 55°09' E 013°15'10 9.1
2017-Feb-13 14:30N 55°14' E 013°01'1010.3
2017-Feb-13 13:33N 55°16' E 012°44'9 8.5
2017-Feb-13 12:33N 55°25' E 012°39'1110.9
2017-Feb-13 11:34N 55°35' E 012°42'1110.9
2017-Feb-13 10:33N 55°46' E 012°41'1110.6
2017-Feb-13 09:34N 55°57' E 012°38'9 8.6
2017-Feb-13 08:34N 56°05' E 012°35'9 8.7
2017-Feb-13 07:34N 56°10' E 012°22'68 9.6
2017-Feb-13 00:32N 57°12' E 011°34'9 9.3
2017-Feb-12 23:34N 57°21' E 011°28'9 9.2
2017-Feb-12 22:33N 57°29' E 011°21'9 9.2
2017-Feb-12 21:33N 57°37' E 011°13'10 9.7
2017-Feb-12 20:34N 57°46' E 011°03'1010.1
2017-Feb-12 19:33N 57°55' E 010°54'5410.9
2017-Feb-12 14:33N 58°42' E 010°03'1010.1
2017-Feb-12 13:33N 58°51' E 009°54'1010.2
2017-Feb-12 12:33N 59°00' E 009°47'4 4.3
2017-Feb-12 11:33N 59°04' E 009°42'0 0.0
2017-Feb-12 10:33N 59°04' E 009°42'0 0.0
2017-Feb-12 09:33N 59°04' E 009°42'0 0.0
2017-Feb-12 08:33N 59°04' E 009°42'0 0.0
2017-Feb-12 07:33N 59°04' E 009°42'0 0.0
2017-Feb-12 06:33N 59°04' E 009°42'0 0.0
2017-Feb-12 05:33N 59°04' E 009°42'0 0.0
2017-Feb-12 04:33N 59°04' E 009°42'0 0.0
2017-Feb-12 03:32N 59°04' E 009°42'0 0.0
2017-Feb-12 02:33N 59°04' E 009°42'0 0.0
2017-Feb-12 01:33N 59°04' E 009°42'0 0.0
2017-Feb-12 00:33N 59°04' E 009°42'0 0.0
2017-Feb-11 23:33N 59°04' E 009°42'0 0.0
2017-Feb-11 22:33N 59°04' E 009°42'0 0.0
2017-Feb-11 21:33N 59°04' E 009°42'0 0.0
2017-Feb-11 20:33N 59°04' E 009°42'0 0.0
2017-Feb-11 19:33N 59°04' E 009°42'0 0.0
2017-Feb-11 18:33N 59°04' E 009°42'0 0.0
2017-Feb-11 17:33N 59°04' E 009°42'0 0.0
2017-Feb-11 16:34N 59°04' E 009°42'0 0.0
2017-Feb-11 15:33N 59°04' E 009°42'0 0.0
2017-Feb-11 14:33N 59°04' E 009°42'0 0.0
2017-Feb-11 13:33N 59°04' E 009°42'0 0.0
2017-Feb-11 12:33N 59°04' E 009°42'0 0.0
2017-Feb-11 11:33N 59°04' E 009°42'0 0.0
2017-Feb-11 10:33N 59°04' E 009°42'0 0.0
2017-Feb-11 09:33N 59°04' E 009°42'0 0.0
2017-Feb-11 08:33N 59°04' E 009°42'0 0.0
2017-Feb-11 07:33N 59°04' E 009°42'0 0.0
2017-Feb-11 06:33N 59°04' E 009°42'0 0.0
2017-Feb-11 05:32N 59°04' E 009°42'0 0.0
2017-Feb-11 04:33N 59°04' E 009°42'0 0.0
2017-Feb-11 03:34N 59°04' E 009°42'0 0.0
2017-Feb-11 02:33N 59°04' E 009°42'0 0.0
2017-Feb-11 01:33N 59°04' E 009°42'0 0.0
2017-Feb-11 00:32N 59°04' E 009°42'0 0.0
2017-Feb-10 23:33N 59°04' E 009°42'0 0.0
2017-Feb-10 22:33N 59°04' E 009°42'0 0.0
2017-Feb-10 21:33N 59°04' E 009°42'0 0.1
2017-Feb-10 20:33N 59°04' E 009°42'8 7.7
2017-Feb-10 19:33N 58°57' E 009°48'9 9.5
2017-Feb-10 18:33N 58°48' E 009°56'  

Dump ship's entire track history